createdAt,value
2023-09-10T00:03:33.884Z,99245.00
2023-09-10T00:08:36.821Z,99247.24
2023-09-10T00:13:40.223Z,99244.85
2023-09-10T00:18:42.032Z,99242.09
2023-09-10T00:23:44.120Z,99244.32
2023-09-10T00:28:46.261Z,99238.80
2023-09-10T00:33:48.322Z,99237.97
2023-09-10T00:38:50.180Z,99241.40
2023-09-10T00:43:53.138Z,99241.55
2023-09-10T00:48:55.205Z,99240.17
2023-09-10T00:53:57.275Z,99240.36
2023-09-10T00:58:59.494Z,99241.89
2023-09-10T01:04:02.311Z,99240.25
2023-09-10T01:09:05.422Z,99233.98
2023-09-10T01:14:17.763Z,99234.15
2023-09-10T01:20:10.731Z,99234.13
2023-09-10T01:25:13.134Z,99227.06
2023-09-10T01:30:15.061Z,99225.82
2023-09-10T01:35:22.588Z,99225.95
2023-09-10T01:40:36.354Z,99230.45
2023-09-10T01:45:38.768Z,99227.81
2023-09-10T01:50:40.807Z,99232.20
2023-09-10T01:55:42.690Z,99232.23
2023-09-10T02:00:46.344Z,99231.70
2023-09-10T02:05:48.591Z,99232.64
2023-09-10T02:10:50.538Z,99233.04
2023-09-10T02:15:52.732Z,99225.74
2023-09-10T02:20:54.684Z,99228.08
2023-09-10T02:25:56.779Z,99235.46
2023-09-10T02:31:05.995Z,99231.75
2023-09-10T02:36:08.275Z,99233.26
2023-09-10T02:41:10.838Z,99233.45
2023-09-10T02:46:12.781Z,99235.09
2023-09-10T02:51:14.728Z,99234.96
2023-09-10T02:56:16.702Z,99231.25
2023-09-10T03:01:18.564Z,99235.13
2023-09-10T03:06:20.693Z,99234.09
2023-09-10T03:11:22.678Z,99235.58
2023-09-10T03:16:26.526Z,99232.13
2023-09-10T03:21:29.087Z,99228.20
2023-09-10T03:26:31.406Z,99226.98
2023-09-10T03:31:33.595Z,99227.75
2023-09-10T03:36:35.508Z,99230.15
2023-09-10T03:41:37.861Z,99230.80
2023-09-10T03:46:39.910Z,99229.77
2023-09-10T03:51:42.217Z,99227.13
2023-09-10T03:56:47.430Z,99225.91
2023-09-10T04:01:49.504Z,99221.05
2023-09-10T04:06:51.575Z,99217.33
2023-09-10T04:11:53.697Z,99215.23
2023-09-10T04:16:55.728Z,99216.73
2023-09-10T04:21:57.867Z,99217.29
2023-09-10T04:26:59.859Z,99216.30
2023-09-10T04:32:02.026Z,99215.70
2023-09-10T04:37:05.797Z,99218.33
2023-09-10T04:42:07.945Z,99217.86
2023-09-10T04:47:10.683Z,99219.95
2023-09-10T04:52:12.841Z,99222.08
2023-09-10T04:57:14.863Z,99218.34
2023-09-10T05:02:17.231Z,99223.77
2023-09-10T05:07:19.434Z,99229.31
2023-09-10T05:12:21.928Z,99228.59
2023-09-10T05:17:23.775Z,99226.30
2023-09-10T05:22:25.959Z,99226.23
2023-09-10T05:27:27.881Z,99230.10
2023-09-10T05:32:30.195Z,99232.54
2023-09-10T05:37:32.501Z,99228.23
2023-09-10T05:42:34.615Z,99226.42
2023-09-10T05:47:36.412Z,99231.42
2023-09-10T05:52:38.742Z,99233.56
2023-09-10T05:57:40.852Z,99237.23
2023-09-10T06:02:43.257Z,99234.25
2023-09-10T06:07:46.188Z,99231.73
2023-09-10T06:12:48.204Z,99228.34
2023-09-10T06:17:50.208Z,99223.58
2023-09-10T06:22:54.280Z,99224.00
2023-09-10T06:27:56.261Z,99222.14
2023-09-10T06:32:58.416Z,99222.42
2023-09-10T06:38:00.987Z,99230.17
2023-09-10T06:43:05.244Z,99229.25
2023-09-10T06:48:11.971Z,99236.48
2023-09-10T06:53:14.089Z,99236.66
2023-09-10T06:58:18.713Z,99238.70
2023-09-10T07:03:20.833Z,99235.94
2023-09-10T07:08:22.892Z,99239.54
2023-09-10T07:13:24.800Z,99239.39
2023-09-10T07:18:28.251Z,99240.26
2023-09-10T07:23:30.434Z,99242.40
2023-09-10T07:28:32.221Z,99244.55
2023-09-10T07:33:33.972Z,99234.71
2023-09-10T07:38:35.797Z,99242.11
2023-09-10T07:43:37.729Z,99241.94
2023-09-10T07:48:40.464Z,99242.14
2023-09-10T07:53:42.848Z,99242.63
2023-09-10T07:58:44.965Z,99245.30
2023-09-10T08:03:46.841Z,99246.48
2023-09-10T08:08:48.796Z,99241.39
2023-09-10T08:13:52.400Z,99244.30
2023-09-10T08:18:54.320Z,99244.22
2023-09-10T08:23:56.142Z,99243.74
2023-09-10T08:28:57.930Z,99245.55
2023-09-10T08:34:00.050Z,99244.59
2023-09-10T08:39:01.962Z,99243.83
2023-09-10T08:44:05.394Z,99244.27
2023-09-10T08:49:10.460Z,99242.51
2023-09-10T08:54:14.067Z,99235.00
2023-09-10T08:59:17.084Z,99234.61
2023-09-10T09:04:19.481Z,99234.14
2023-09-10T09:09:23.936Z,99234.81
2023-09-10T09:14:27.129Z,99235.84
2023-09-10T09:19:31.461Z,99233.21
2023-09-10T09:24:34.786Z,99226.55
2023-09-10T09:29:37.414Z,99226.91
2023-09-10T09:34:39.255Z,99225.45
2023-09-10T09:39:46.411Z,99216.79
2023-09-10T09:44:48.263Z,99217.35
2023-09-10T09:49:50.786Z,99215.90
2023-09-10T09:54:52.845Z,99212.80
2023-09-10T09:59:54.741Z,99208.56
2023-09-10T10:04:56.681Z,99202.05
2023-09-10T10:10:01.934Z,99200.20
2023-09-10T10:15:11.157Z,99191.66
2023-09-10T10:20:25.258Z,99188.70
2023-09-10T10:25:32.408Z,99182.60
2023-09-10T10:30:37.036Z,99183.85
2023-09-10T10:35:56.942Z,99182.29
2023-09-10T10:41:06.139Z,99173.22
2023-09-10T10:46:11.576Z,99174.08
2023-09-10T10:51:20.017Z,99169.66
2023-09-10T10:56:26.246Z,99165.73
2023-09-10T11:01:29.199Z,99162.65
2023-09-10T11:06:31.580Z,99151.05
2023-09-10T11:11:37.521Z,99149.64
2023-09-10T11:16:57.628Z,99146.77
2023-09-10T11:21:59.469Z,99144.85
2023-09-10T11:27:24.862Z,99145.96
2023-09-10T11:32:26.859Z,99141.41
2023-09-10T11:37:28.770Z,99134.59
2023-09-10T11:42:31.252Z,99132.33
2023-09-10T11:47:34.979Z,99125.89
2023-09-10T11:52:37.831Z,99123.27
2023-09-10T11:57:39.733Z,99121.55
2023-09-10T12:02:42.090Z,99114.81
2023-09-10T12:07:45.504Z,99114.56
2023-09-10T12:12:49.605Z,99115.50
2023-09-10T12:17:51.558Z,99110.46
2023-09-10T12:22:54.815Z,99105.25
2023-09-10T12:27:57.930Z,99101.51
2023-09-10T12:33:01.604Z,99097.92
2023-09-10T12:38:03.497Z,99093.45
2023-09-10T12:43:05.304Z,99085.62
2023-09-10T12:48:07.839Z,99083.30
2023-09-10T12:53:09.920Z,99077.80
2023-09-10T12:58:13.193Z,99072.39
2023-09-10T13:03:15.513Z,99067.76
2023-09-10T13:08:17.793Z,99068.19
2023-09-10T13:13:19.844Z,99064.77
2023-09-10T13:18:21.721Z,99062.38
2023-09-10T13:23:23.776Z,99058.68
2023-09-10T13:28:25.708Z,99061.42
2023-09-10T13:33:27.515Z,99055.24
2023-09-10T13:38:29.525Z,99061.22
2023-09-10T13:43:31.644Z,99055.81
2023-09-10T13:48:33.474Z,99053.39
2023-09-10T13:53:43.845Z,99048.54
2023-09-10T13:58:46.066Z,99049.70
2023-09-10T14:03:47.934Z,99051.67
2023-09-10T14:08:49.900Z,99057.27
2023-09-10T14:13:51.806Z,99055.74
2023-09-10T14:18:53.570Z,99052.71
2023-09-10T14:23:55.453Z,99052.30
2023-09-10T14:28:57.273Z,99045.14
2023-09-10T14:33:59.259Z,99043.50
2023-09-10T14:39:01.041Z,99037.91
2023-09-10T14:44:02.848Z,99038.06
2023-09-10T14:49:04.939Z,99032.36
2023-09-10T14:54:06.973Z,99035.15
2023-09-10T14:59:08.905Z,99034.09
2023-09-10T15:04:10.830Z,99033.42
2023-09-10T15:09:12.876Z,99027.39
2023-09-10T15:14:14.672Z,99019.83
2023-09-10T15:19:16.428Z,99016.36
2023-09-10T15:24:18.220Z,99010.43
2023-09-10T15:29:20.245Z,99007.73
2023-09-10T15:34:22.175Z,99007.87
2023-09-10T15:39:24.761Z,99003.36
2023-09-10T15:44:26.741Z,99004.58
2023-09-10T15:49:28.636Z,99001.55
2023-09-10T15:54:31.453Z,98998.16
2023-09-10T15:59:34.176Z,99000.94
2023-09-10T16:04:36.050Z,99000.21
2023-09-10T16:09:37.902Z,99003.09
2023-09-10T16:14:39.848Z,98999.63
2023-09-10T16:19:41.812Z,98997.66
2023-09-10T16:24:43.847Z,98996.41
2023-09-10T16:29:45.895Z,98994.52
2023-09-10T16:34:47.861Z,99002.63
2023-09-10T16:39:49.950Z,99005.41
2023-09-10T16:44:51.878Z,99007.00
2023-09-10T16:49:53.810Z,99006.80
2023-09-10T16:54:55.673Z,99009.28
2023-09-10T16:59:57.594Z,99015.62
2023-09-10T17:04:59.448Z,99023.09
2023-09-10T17:10:01.301Z,99026.70
2023-09-10T17:15:03.553Z,99029.33
2023-09-10T17:20:06.917Z,99030.05
2023-09-10T17:25:09.503Z,99031.90
2023-09-10T17:30:11.533Z,99038.09
2023-09-10T17:35:14.086Z,99036.42
2023-09-10T17:40:16.204Z,99038.02
2023-09-10T17:45:18.015Z,99037.34
2023-09-10T17:50:19.882Z,99038.95
2023-09-10T17:55:21.828Z,99038.29
2023-09-10T18:00:24.252Z,99035.22
2023-09-10T18:05:26.148Z,99032.45
2023-09-10T18:10:27.992Z,99033.20
2023-09-10T18:15:30.136Z,99029.23
2023-09-10T18:20:31.966Z,99027.89
2023-09-10T18:25:33.992Z,99031.38
2023-09-10T18:30:36.009Z,99037.05
2023-09-10T18:35:37.856Z,99041.44
2023-09-10T18:40:44.390Z,99049.88
2023-09-10T18:45:46.286Z,99052.52
2023-09-10T18:50:48.435Z,99052.58
2023-09-10T18:55:51.540Z,99056.39
2023-09-10T19:00:59.361Z,99059.86
2023-09-10T19:06:01.506Z,99054.52
2023-09-10T19:11:03.757Z,99050.48
2023-09-10T19:16:05.904Z,99052.58
2023-09-10T19:21:07.783Z,99052.75
2023-09-10T19:26:09.705Z,99055.39
2023-09-10T19:31:12.885Z,99055.02
2023-09-10T19:36:16.801Z,99055.85
2023-09-10T19:41:18.622Z,99054.56
2023-09-10T19:46:21.080Z,99054.73
2023-09-10T19:51:22.965Z,99050.09
2023-09-10T19:56:26.895Z,99051.53
2023-09-10T20:01:31.299Z,99047.61
2023-09-10T20:06:35.611Z,99043.94
2023-09-10T20:11:38.626Z,99044.51
2023-09-10T20:16:40.791Z,99045.39
2023-09-10T20:21:43.029Z,99047.70
2023-09-10T20:26:44.979Z,99044.50
2023-09-10T20:31:48.842Z,99044.02
2023-09-10T20:36:51.195Z,99041.94
2023-09-10T20:41:56.939Z,99041.54
2023-09-10T20:46:58.996Z,99042.64
2023-09-10T20:52:00.912Z,99036.95
2023-09-10T20:57:04.224Z,99035.83
2023-09-10T21:02:06.510Z,99034.75
2023-09-10T21:07:08.602Z,99033.85
2023-09-10T21:12:15.561Z,99035.38
2023-09-10T21:17:17.508Z,99037.85
2023-09-10T21:22:21.155Z,99033.94
2023-09-10T21:27:23.025Z,99036.86
2023-09-10T21:32:25.008Z,99035.50
2023-09-10T21:37:26.976Z,99035.27
2023-09-10T21:42:28.787Z,99029.55
2023-09-10T21:47:30.852Z,99025.46
2023-09-10T21:52:32.919Z,99026.50
2023-09-10T21:57:34.638Z,99023.93
2023-09-10T22:02:36.733Z,99019.20
2023-09-10T22:07:38.861Z,99016.46
2023-09-10T22:12:41.025Z,99017.61
2023-09-10T22:17:42.872Z,99013.23
2023-09-10T22:22:44.802Z,99017.71
2023-09-10T22:27:46.752Z,99018.81
2023-09-10T22:32:49.224Z,99020.55
2023-09-10T22:37:51.329Z,99020.16
2023-09-10T22:42:53.124Z,99018.88
2023-09-10T22:47:55.282Z,99021.73
2023-09-10T22:52:57.272Z,99012.87
2023-09-10T22:57:59.171Z,99010.14
2023-09-10T23:03:01.271Z,99008.14
2023-09-10T23:08:03.419Z,99009.81
2023-09-10T23:13:11.970Z,99009.11
2023-09-10T23:18:14.932Z,99007.59
2023-09-10T23:23:17.059Z,99003.42
2023-09-10T23:28:18.898Z,98996.90
2023-09-10T23:33:20.764Z,98999.27
2023-09-10T23:38:24.852Z,99002.06
2023-09-10T23:43:27.182Z,98993.30
2023-09-10T23:48:29.051Z,98993.13
2023-09-10T23:53:30.951Z,98992.31
2023-09-10T23:58:34.868Z,98987.57
